Time;durP1;ratioP1;P1;durP2;ratioP2;P2;SDS_P1;SDS_P2;PMS_P1;PMS_P2;Temp;Humidity;BMP_temperature;BMP_pressure;BME280_temperature;BME280_humidity;BME280_pressure;Samples;Min_cycle;Max_cycle;Signal;HPM_P1;HPM_P2
2022/08/23 00:01:45;;;;;;;0.00;0.00;;;;;;;;;;6225415;22;20012;-89
2022/08/23 00:04:13;;;;;;;0.00;0.00;;;;;;;;;;6225168;22;20015;-88
2022/08/23 00:06:40;;;;;;;0.40;0.40;;;;;;;;;;6224601;22;20011;-89
2022/08/23 00:09:06;;;;;;;0.00;0.00;;;;;;;;;;6225291;22;20019;-89
2022/08/23 00:11:35;;;;;;;0.10;0.10;;;;;;;;;;6224958;22;20065;-89
2022/08/23 00:14:05;;;;;;;0.10;0.10;;;;;;;;;;6225441;22;20066;-89
2022/08/23 00:16:31;;;;;;;0.00;0.00;;;;;;;;;;6224716;22;20023;-89
2022/08/23 00:18:57;;;;;;;0.08;0.08;;;;;;;;;;6225274;22;20026;-89
2022/08/23 00:21:24;;;;;;;0.10;0.10;;;;;;;;;;6225115;22;20373;-89
2022/08/23 00:23:50;;;;;;;0.10;0.10;;;;;;;;;;6225222;22;20410;-89
2022/08/23 00:26:16;;;;;;;0.08;0.08;;;;;;;;;;6224642;22;20022;-89
2022/08/23 00:28:42;;;;;;;0.10;0.10;;;;;;;;;;6225271;22;20022;-89
2022/08/23 00:31:08;;;;;;;1.65;1.55;;;;;;;;;;6225143;22;20067;-89
2022/08/23 00:33:34;;;;;;;0.00;0.00;;;;;;;;;;6225222;22;20024;-89
2022/08/23 00:36:00;;;;;;;0.10;0.10;;;;;;;;;;6224437;22;20027;-90
2022/08/23 00:38:26;;;;;;;0.10;0.10;;;;;;;;;;6225176;22;20020;-89
2022/08/23 00:40:53;;;;;;;0.03;0.03;;;;;;;;;;6224954;22;20031;-89
2022/08/23 00:49:00;;;;;;;0.05;0.05;;;;;;;;;;6250232;22;20027;-88
2022/08/23 00:51:40;;;;;;;0.00;0.00;;;;;;;;;;6224874;22;20069;-89
2022/08/23 00:54:09;;;;;;;0.10;0.10;;;;;;;;;;6225031;22;20020;-89
2022/08/23 00:56:38;;;;;;;0.20;0.20;;;;;;;;;;6224271;22;20442;-89
2022/08/23 00:59:04;;;;;;;0.00;0.00;;;;;;;;;;6250119;22;20039;-89
2022/08/23 01:01:30;;;;;;;0.05;0.05;;;;;;;;;;6250071;22;20012;-89
2022/08/23 01:03:58;;;;;;;0.10;0.10;;;;;;;;;;6224797;22;20022;-88
2022/08/23 01:06:31;;;;;;;0.10;0.10;;;;;;;;;;6224036;22;20073;-89
2022/08/23 01:09:01;;;;;;;0.00;0.00;;;;;;;;;;6224565;22;20023;-88
2022/08/23 01:11:31;;;;;;;0.10;0.10;;;;;;;;;;6225042;22;20019;-88
2022/08/23 01:14:19;;;;;;;0.20;0.20;;;;;;;;;;6226798;22;20051;-89
2022/08/23 01:17:04;;;;;;;0.10;0.10;;;;;;;;;;6226403;22;20346;-88
2022/08/23 01:19:33;;;;;;;0.10;0.10;;;;;;;;;;6226837;22;20094;-89
2022/08/23 01:22:04;;;;;;;0.00;0.00;;;;;;;;;;6226477;22;20020;-88
2022/08/23 01:24:31;;;;;;;0.00;0.00;;;;;;;;;;6226748;22;20035;-89
2022/08/23 01:26:57;;;;;;;0.08;0.08;;;;;;;;;;6226281;22;20335;-88
2022/08/23 01:29:23;;;;;;;0.15;0.15;;;;;;;;;;6226408;22;20421;-88
2022/08/23 01:31:49;;;;;;;0.20;0.20;;;;;;;;;;6226711;22;20015;-89
2022/08/23 01:34:16;;;;;;;4.78;2.88;;;;;;;;;;6226440;22;20536;-88
2022/08/23 01:36:43;;;;;;;0.10;0.10;;;;;;;;;;6251062;22;20012;-88
2022/08/23 01:39:10;;;;;;;0.00;0.00;;;;;;;;;;6226611;22;20012;-88
2022/08/23 01:41:39;;;;;;;0.00;0.00;;;;;;;;;;6201597;22;20023;-89
2022/08/23 01:44:06;;;;;;;0.10;0.10;;;;;;;;;;6251862;22;20065;-87
2022/08/23 01:46:32;;;;;;;0.10;0.10;;;;;;;;;;6225965;22;20031;-89
2022/08/23 01:48:58;;;;;;;0.10;0.10;;;;;;;;;;6226494;22;20027;-88
2022/08/23 01:51:25;;;;;;;0.10;0.10;;;;;;;;;;6226748;22;20442;-89
2022/08/23 01:53:51;;;;;;;0.10;0.10;;;;;;;;;;6226387;22;20077;-89
2022/08/23 01:56:18;;;;;;;0.03;0.03;;;;;;;;;;6225739;22;20024;-88
2022/08/23 01:58:45;;;;;;;0.10;0.10;;;;;;;;;;6226368;22;20011;-88
2022/08/23 02:01:11;;;;;;;0.00;0.00;;;;;;;;;;6226265;22;20018;-88
2022/08/23 02:03:37;;;;;;;0.10;0.10;;;;;;;;;;6226113;22;20027;-88
2022/08/23 02:06:03;;;;;;;0.10;0.10;;;;;;;;;;6226051;22;20015;-88
2022/08/23 02:11:15;;;;;;;0.10;0.10;;;;;;;;;;6251454;22;20392;-88
2022/08/23 02:13:42;;;;;;;0.20;0.20;;;;;;;;;;6226063;22;20020;-88
2022/08/23 02:16:09;;;;;;;0.10;0.10;;;;;;;;;;6225398;22;20434;-88
2022/08/23 02:18:35;;;;;;;0.10;0.10;;;;;;;;;;6226097;22;20016;-88
2022/08/23 02:21:01;;;;;;;0.10;0.10;;;;;;;;;;6225907;22;20503;-88
2022/08/23 02:23:27;;;;;;;0.20;0.20;;;;;;;;;;6225930;22;20015;-88
2022/08/23 02:25:53;;;;;;;0.10;0.10;;;;;;;;;;6225793;22;20016;-89
2022/08/23 02:28:21;;;;;;;0.05;0.05;;;;;;;;;;6226145;22;20051;-88
2022/08/23 02:30:49;;;;;;;0.10;0.10;;;;;;;;;;6226314;22;20361;-89
2022/08/23 02:33:15;;;;;;;0.10;0.10;;;;;;;;;;6226110;22;20016;-88
2022/08/23 02:35:41;;;;;;;0.10;0.10;;;;;;;;;;6225198;22;20019;-88
2022/08/23 02:38:10;;;;;;;0.10;0.10;;;;;;;;;;6251142;22;20011;-89
2022/08/23 02:40:36;;;;;;;0.00;0.00;;;;;;;;;;6225892;22;20016;-88
2022/08/23 02:43:03;;;;;;;0.05;0.05;;;;;;;;;;6225946;22;20018;-88
2022/08/23 02:45:29;;;;;;;0.00;0.00;;;;;;;;;;6225311;22;20023;-88
2022/08/23 02:47:56;;;;;;;0.10;0.10;;;;;;;;;;6226060;22;20027;-88
2022/08/23 02:50:22;;;;;;;0.00;0.00;;;;;;;;;;6225910;22;20016;-88
2022/08/23 02:52:49;;;;;;;0.10;0.10;;;;;;;;;;6225557;22;20442;-88
2022/08/23 02:55:15;;;;;;;0.10;0.10;;;;;;;;;;6226021;22;20012;-88
2022/08/23 02:57:41;;;;;;;0.20;0.20;;;;;;;;;;6225074;22;20015;-88
2022/08/23 03:00:10;;;;;;;0.00;0.00;;;;;;;;;;6225886;22;20014;-88
2022/08/23 03:02:37;;;;;;;0.10;0.10;;;;;;;;;;6225751;22;20066;-88
2022/08/23 03:05:04;;;;;;;0.00;0.00;;;;;;;;;;6225612;22;20016;-87
2022/08/23 03:07:30;;;;;;;0.10;0.10;;;;;;;;;;6224798;22;20023;-88
2022/08/23 03:09:56;;;;;;;0.00;0.00;;;;;;;;;;6250572;22;20386;-88
2022/08/23 03:12:23;;;;;;;0.10;0.10;;;;;;;;;;6225150;22;20012;-88
2022/08/23 03:14:50;;;;;;;0.10;0.10;;;;;;;;;;6225378;22;20022;-88
2022/08/23 03:17:17;;;;;;;0.00;0.00;;;;;;;;;;6224775;22;20055;-88
2022/08/23 03:19:43;;;;;;;0.10;0.10;;;;;;;;;;6225136;22;20011;-89
2022/08/23 03:22:09;;;;;;;0.00;0.00;;;;;;;;;;6225301;22;20441;-88
2022/08/23 03:24:37;;;;;;;0.10;0.10;;;;;;;;;;6225431;22;20012;-88
2022/08/23 03:27:04;;;;;;;0.10;0.10;;;;;;;;;;6225118;22;20016;-88
2022/08/23 03:29:30;;;;;;;0.10;0.10;;;;;;;;;;6250523;22;20053;-88
2022/08/23 03:31:57;;;;;;;0.10;0.10;;;;;;;;;;6250222;22;20457;-89
2022/08/23 03:34:23;;;;;;;0.20;0.20;;;;;;;;;;6224947;22;20337;-89
2022/08/23 03:36:49;;;;;;;0.10;0.10;;;;;;;;;;6199968;22;20637;-88
2022/08/23 03:39:15;;;;;;;0.10;0.10;;;;;;;;;;6225305;22;20023;-88
2022/08/23 03:41:42;;;;;;;0.10;0.10;;;;;;;;;;6250562;22;20017;-88
2022/08/23 03:44:08;;;;;;;0.10;0.10;;;;;;;;;;6225379;22;20141;-88
2022/08/23 03:46:34;;;;;;;0.00;0.00;;;;;;;;;;6224876;22;20026;-88
2022/08/23 03:49:01;;;;;;;0.08;0.08;;;;;;;;;;6225247;22;20141;-88
2022/08/23 03:51:29;;;;;;;0.10;0.10;;;;;;;;;;6225352;22;20024;-88
2022/08/23 03:53:55;;;;;;;0.10;0.10;;;;;;;;;;6225353;22;20054;-88
2022/08/23 03:56:27;;;;;;;0.05;0.05;;;;;;;;;;6224443;22;20020;-88
2022/08/23 03:58:55;;;;;;;0.10;0.10;;;;;;;;;;6225345;22;20012;-89
2022/08/23 04:01:21;;;;;;;0.00;0.00;;;;;;;;;;6224951;22;20017;-88
2022/08/23 04:03:47;;;;;;;0.20;0.20;;;;;;;;;;6222866;22;20040;-89
2022/08/23 04:06:13;;;;;;;0.08;0.08;;;;;;;;;;6223770;22;20019;-88
2022/08/23 04:08:39;;;;;;;0.00;0.00;;;;;;;;;;6223723;22;20019;-88
2022/08/23 04:11:06;;;;;;;0.20;0.20;;;;;;;;;;6224494;22;20349;-88
2022/08/23 04:13:33;;;;;;;0.00;0.00;;;;;;;;;;6224445;22;20457;-88
2022/08/23 04:16:02;;;;;;;0.20;0.20;;;;;;;;;;6248951;22;20016;-89
2022/08/23 04:18:30;;;;;;;0.00;0.00;;;;;;;;;;6223933;22;20098;-88
2022/08/23 04:20:57;;;;;;;0.10;0.10;;;;;;;;;;6224358;22;20016;-88
2022/08/23 04:23:24;;;;;;;0.10;0.10;;;;;;;;;;6224459;22;20327;-88
2022/08/23 04:25:50;;;;;;;0.10;0.10;;;;;;;;;;6223778;22;20024;-88
2022/08/23 04:28:17;;;;;;;0.10;0.10;;;;;;;;;;6224033;22;20051;-87
2022/08/23 04:30:44;;;;;;;0.10;0.10;;;;;;;;;;6249381;22;20019;-87
2022/08/23 04:33:11;;;;;;;0.00;0.00;;;;;;;;;;6224210;22;20015;-88
2022/08/23 04:35:36;;;;;;;0.10;0.10;;;;;;;;;;6223438;22;20024;-88
2022/08/23 04:38:02;;;;;;;0.10;0.10;;;;;;;;;;6249430;22;20018;-88
2022/08/23 04:43:18;;;;;;;0.10;0.10;;;;;;;;;;6192982;22;20022;-88
2022/08/23 04:45:45;;;;;;;0.15;0.15;;;;;;;;;;6198323;22;20015;-88
2022/08/23 04:48:12;;;;;;;0.10;0.10;;;;;;;;;;6249043;22;20019;-87
2022/08/23 04:50:39;;;;;;;0.10;0.10;;;;;;;;;;6223932;22;20073;-87
2022/08/23 04:53:05;;;;;;;0.10;0.10;;;;;;;;;;6223743;22;20029;-87
2022/08/23 04:55:31;;;;;;;0.10;0.10;;;;;;;;;;6223192;22;20027;-88
2022/08/23 04:57:58;;;;;;;0.00;0.00;;;;;;;;;;6223987;22;20011;-88
2022/08/23 05:00:24;;;;;;;0.10;0.10;;;;;;;;;;6223909;22;20012;-87
2022/08/23 05:02:50;;;;;;;0.10;0.10;;;;;;;;;;6249196;22;20012;-88
2022/08/23 05:05:16;;;;;;;0.10;0.10;;;;;;;;;;6224047;22;20023;-88
2022/08/23 05:07:42;;;;;;;0.00;0.00;;;;;;;;;;6248672;22;20020;-88
2022/08/23 05:10:10;;;;;;;0.15;0.15;;;;;;;;;;6223948;22;20016;-87
2022/08/23 05:12:36;;;;;;;0.10;0.10;;;;;;;;;;6223770;22;20011;-88
2022/08/23 05:15:02;;;;;;;0.20;0.20;;;;;;;;;;6223920;22;20023;-88
2022/08/23 05:17:28;;;;;;;0.10;0.10;;;;;;;;;;6223117;22;20020;-88
2022/08/23 05:19:56;;;;;;;0.10;0.10;;;;;;;;;;6249085;22;20030;-88
2022/08/23 05:22:22;;;;;;;0.10;0.10;;;;;;;;;;6223608;22;20023;-87
2022/08/23 05:24:48;;;;;;;0.10;0.10;;;;;;;;;;6223618;22;20133;-87
2022/08/23 05:27:14;;;;;;;0.10;0.10;;;;;;;;;;6223149;22;20015;-88
2022/08/23 05:29:40;;;;;;;0.05;0.05;;;;;;;;;;6248839;22;20099;-88
2022/08/23 05:32:06;;;;;;;0.10;0.10;;;;;;;;;;6223744;22;20020;-88
2022/08/23 05:34:32;;;;;;;0.05;0.05;;;;;;;;;;6223531;22;20020;-88
2022/08/23 05:36:58;;;;;;;0.10;0.10;;;;;;;;;;6223108;22;20019;-88
2022/08/23 05:39:24;;;;;;;0.10;0.10;;;;;;;;;;6223663;22;20023;-88
2022/08/23 05:41:50;;;;;;;0.10;0.10;;;;;;;;;;6223512;22;20012;-88
2022/08/23 05:44:16;;;;;;;0.10;0.10;;;;;;;;;;6248996;22;20082;-88
2022/08/23 05:46:44;;;;;;;0.10;0.10;;;;;;;;;;6223033;22;20024;-86
2022/08/23 05:49:10;;;;;;;0.08;0.08;;;;;;;;;;6223705;22;20019;-88
2022/08/23 05:51:36;;;;;;;0.10;0.10;;;;;;;;;;6223301;22;20085;-88
2022/08/23 05:54:07;;;;;;;0.13;0.13;;;;;;;;;;6223492;22;20020;-87
2022/08/23 05:56:34;;;;;;;0.08;0.08;;;;;;;;;;6223149;22;20020;-88
2022/08/23 05:59:02;;;;;;;0.00;0.00;;;;;;;;;;6224496;22;20016;-88
2022/08/23 06:01:29;;;;;;;0.10;0.10;;;;;;;;;;6250252;22;20011;-88
2022/08/23 06:03:55;;;;;;;0.10;0.10;;;;;;;;;;6224947;22;20341;-88
2022/08/23 06:06:21;;;;;;;0.08;0.08;;;;;;;;;;6223980;22;20054;-87
2022/08/23 06:08:48;;;;;;;0.10;0.10;;;;;;;;;;6249988;22;20464;-88
2022/08/23 06:11:19;;;;;;;0.10;0.10;;;;;;;;;;6224903;22;20019;-88
2022/08/23 06:13:50;;;;;;;0.00;0.00;;;;;;;;;;6250130;22;20016;-87
2022/08/23 06:16:17;;;;;;;0.10;0.10;;;;;;;;;;6224175;22;20020;-88
2022/08/23 06:18:44;;;;;;;0.10;0.10;;;;;;;;;;6249996;22;20012;-88
2022/08/23 06:21:11;;;;;;;0.10;0.10;;;;;;;;;;6224440;22;20012;-87
2022/08/23 06:23:37;;;;;;;0.00;0.00;;;;;;;;;;6223837;22;20077;-83
2022/08/23 06:26:32;;;;;;;0.10;0.10;;;;;;;;;;6224548;22;20073;-90
2022/08/23 06:29:01;;;;;;;0.10;0.10;;;;;;;;;;6193770;22;20016;-90
2022/08/23 06:31:46;;;;;;;0.10;0.10;;;;;;;;;;6225242;22;20019;-90
2022/08/23 06:34:18;;;;;;;0.10;0.10;;;;;;;;;;6225803;22;20070;-90
2022/08/23 06:36:45;;;;;;;0.05;0.05;;;;;;;;;;6250107;22;20099;-91
2022/08/23 06:39:11;;;;;;;0.10;0.10;;;;;;;;;;6225416;22;20022;-90
2022/08/23 06:41:38;;;;;;;0.10;0.10;;;;;;;;;;6224922;22;20027;-85
2022/08/23 06:44:05;;;;;;;0.00;0.00;;;;;;;;;;6219982;22;20047;-85
2022/08/23 06:46:34;;;;;;;0.10;0.10;;;;;;;;;;6222865;22;20065;-85
2022/08/23 06:49:03;;;;;;;0.10;0.10;;;;;;;;;;6249017;22;20430;-86
2022/08/23 06:51:34;;;;;;;0.05;0.05;;;;;;;;;;6223652;22;20077;-88
2022/08/23 06:54:01;;;;;;;0.08;0.08;;;;;;;;;;6223818;22;20024;-85
2022/08/23 06:56:28;;;;;;;0.00;0.00;;;;;;;;;;6248457;22;20419;-86
2022/08/23 06:58:54;;;;;;;0.10;0.10;;;;;;;;;;6223824;22;20011;-85
2022/08/23 07:01:25;;;;;;;0.10;0.10;;;;;;;;;;6223642;22;20023;-86
2022/08/23 07:03:55;;;;;;;0.00;0.00;;;;;;;;;;6223917;22;20015;-85
2022/08/23 07:06:22;;;;;;;0.10;0.10;;;;;;;;;;6222906;22;20027;-85
2022/08/23 07:08:48;;;;;;;0.10;0.10;;;;;;;;;;6223300;22;20110;-85
2022/08/23 07:11:14;;;;;;;0.03;0.03;;;;;;;;;;6223564;22;20047;-87
2022/08/23 07:13:40;;;;;;;0.00;0.00;;;;;;;;;;6224115;22;20510;-87
2022/08/23 07:16:06;;;;;;;0.00;0.00;;;;;;;;;;6248677;22;20064;-87
2022/08/23 07:18:33;;;;;;;0.10;0.10;;;;;;;;;;6223744;22;20015;-87
2022/08/23 07:21:01;;;;;;;0.10;0.10;;;;;;;;;;6248884;22;20098;-85
2022/08/23 07:23:31;;;;;;;0.10;0.10;;;;;;;;;;6223429;22;20049;-84
2022/08/23 07:25:58;;;;;;;0.00;0.00;;;;;;;;;;6223190;22;20020;-87
2022/08/23 07:28:24;;;;;;;0.10;0.10;;;;;;;;;;6223565;22;20149;-88
2022/08/23 07:30:50;;;;;;;0.03;0.03;;;;;;;;;;6224130;22;20069;-86
2022/08/23 07:33:16;;;;;;;0.10;0.10;;;;;;;;;;6223494;22;20019;-85
2022/08/23 07:35:47;;;;;;;0.10;0.10;;;;;;;;;;6222691;22;20019;-84
2022/08/23 07:38:14;;;;;;;0.00;0.00;;;;;;;;;;6223301;22;20012;-84
2022/08/23 07:40:40;;;;;;;0.10;0.10;;;;;;;;;;6223540;22;20016;-84
2022/08/23 07:43:07;;;;;;;0.10;0.10;;;;;;;;;;6248734;22;20016;-84
2022/08/23 07:45:33;;;;;;;0.10;0.10;;;;;;;;;;6222404;22;20031;-85
2022/08/23 07:48:00;;;;;;;0.00;0.00;;;;;;;;;;6223320;22;20038;-85
2022/08/23 07:50:26;;;;;;;0.00;0.00;;;;;;;;;;6223188;22;20533;-86
2022/08/23 07:52:52;;;;;;;0.00;0.00;;;;;;;;;;6223281;22;20047;-87
2022/08/23 07:55:19;;;;;;;0.10;0.10;;;;;;;;;;6223077;22;20352;-88
2022/08/23 07:57:45;;;;;;;0.00;0.00;;;;;;;;;;6248312;22;20050;-86
2022/08/23 08:00:11;;;;;;;0.00;0.00;;;;;;;;;;6223589;22;20012;-86
2022/08/23 08:02:37;;;;;;;0.00;0.00;;;;;;;;;;6223065;22;20023;-87
2022/08/23 08:05:03;;;;;;;0.10;0.10;;;;;;;;;;6223167;22;20480;-85
2022/08/23 08:07:30;;;;;;;0.00;0.00;;;;;;;;;;6222315;22;20019;-87
2022/08/23 08:09:56;;;;;;;0.10;0.10;;;;;;;;;;6223130;22;20373;-87
2022/08/23 08:12:22;;;;;;;0.10;0.10;;;;;;;;;;6223204;22;20019;-86
2022/08/23 08:14:49;;;;;;;0.10;0.10;;;;;;;;;;6223376;22;20019;-87
2022/08/23 08:17:16;;;;;;;0.10;0.10;;;;;;;;;;6222325;22;20431;-87
2022/08/23 08:19:42;;;;;;;0.00;0.00;;;;;;;;;;6223275;22;20016;-86
2022/08/23 08:22:08;;;;;;;0.05;0.05;;;;;;;;;;6248352;22;20012;-86
2022/08/23 08:24:34;;;;;;;0.00;0.00;;;;;;;;;;6222735;22;20350;-87
2022/08/23 08:27:00;;;;;;;0.00;0.00;;;;;;;;;;6222541;22;20034;-85
2022/08/23 08:29:27;;;;;;;0.00;0.00;;;;;;;;;;6222680;22;20015;-86
2022/08/23 08:31:53;;;;;;;0.00;0.00;;;;;;;;;;6222818;22;20467;-85
2022/08/23 08:34:20;;;;;;;0.08;0.08;;;;;;;;;;6222720;22;20051;-86
2022/08/23 08:36:57;;;;;;;0.10;0.10;;;;;;;;;;6222053;22;20022;-85
2022/08/23 08:39:25;;;;;;;0.00;0.00;;;;;;;;;;6222598;22;20016;-85
2022/08/23 08:41:56;;;;;;;0.00;0.00;;;;;;;;;;6222784;22;20023;-85
2022/08/23 08:44:29;;;;;;;0.00;0.00;;;;;;;;;;6222692;22;20018;-86
2022/08/23 08:46:58;;;;;;;0.10;0.10;;;;;;;;;;6222229;22;20038;-86
2022/08/23 08:49:24;;;;;;;0.10;0.10;;;;;;;;;;6222618;22;20022;-85
2022/08/23 08:52:11;;;;;;;0.00;0.00;;;;;;;;;;6247786;22;20342;-86
2022/08/23 08:54:38;;;;;;;0.00;0.00;;;;;;;;;;6197600;22;20020;-85
2022/08/23 08:57:06;;;;;;;0.00;0.00;;;;;;;;;;6222251;22;20341;-85
2022/08/23 08:59:51;;;;;;;0.00;0.00;;;;;;;;;;6247911;22;20030;-85
2022/08/23 09:02:19;;;;;;;0.00;0.00;;;;;;;;;;6222628;22;20019;-87
2022/08/23 09:04:45;;;;;;;0.10;0.10;;;;;;;;;;6222981;22;20445;-84
2022/08/23 09:07:20;;;;;;;0.00;0.00;;;;;;;;;;6246810;22;20028;-86
2022/08/23 09:09:59;;;;;;;0.00;0.00;;;;;;;;;;6222284;22;20016;-85
2022/08/23 09:12:43;;;;;;;0.10;0.10;;;;;;;;;;6222796;22;20015;-84
2022/08/23 09:15:09;;;;;;;0.00;0.00;;;;;;;;;;6222494;22;20066;-84
2022/08/23 09:17:35;;;;;;;0.03;0.03;;;;;;;;;;6221997;22;20012;-84
2022/08/23 09:20:04;;;;;;;0.00;0.00;;;;;;;;;;6222783;22;20030;-84
2022/08/23 09:22:39;;;;;;;0.00;0.00;;;;;;;;;;6222327;22;20012;-84
2022/08/23 09:25:09;;;;;;;0.00;0.00;;;;;;;;;;6222943;22;20012;-84
2022/08/23 09:27:36;;;;;;;0.00;0.00;;;;;;;;;;6222125;22;20026;-84
2022/08/23 09:30:02;;;;;;;0.10;0.10;;;;;;;;;;6247961;22;20094;-82
2022/08/23 09:32:28;;;;;;;0.10;0.10;;;;;;;;;;6248084;22;20026;-83
2022/08/23 09:35:05;;;;;;;0.05;0.05;;;;;;;;;;6224833;22;20023;-83
2022/08/23 09:37:44;;;;;;;0.03;0.03;;;;;;;;;;6223676;22;20020;-82
2022/08/23 09:40:18;;;;;;;0.00;0.00;;;;;;;;;;6224898;22;20061;-83
2022/08/23 09:42:46;;;;;;;0.10;0.10;;;;;;;;;;6249754;22;20356;-83
2022/08/23 09:45:33;;;;;;;0.10;0.10;;;;;;;;;;6223969;22;20090;-84
2022/08/23 09:47:59;;;;;;;0.10;0.10;;;;;;;;;;6224611;22;20511;-85
2022/08/23 09:50:28;;;;;;;0.10;0.10;;;;;;;;;;6224408;22;20050;-86
2022/08/23 09:52:55;;;;;;;0.08;0.08;;;;;;;;;;6224577;22;20019;-86
2022/08/23 09:55:26;;;;;;;0.10;0.10;;;;;;;;;;6249311;22;20012;-86
2022/08/23 09:57:53;;;;;;;0.00;0.00;;;;;;;;;;6224568;22;20015;-86
2022/08/23 10:00:23;;;;;;;0.00;0.00;;;;;;;;;;6224548;22;20346;-85
2022/08/23 10:02:51;;;;;;;0.00;0.00;;;;;;;;;;6224665;22;20809;-85
2022/08/23 10:05:20;;;;;;;0.05;0.05;;;;;;;;;;6224212;22;20027;-87
2022/08/23 10:07:54;;;;;;;0.00;0.00;;;;;;;;;;6223529;22;20020;-86
2022/08/23 10:10:23;;;;;;;0.00;0.00;;;;;;;;;;6249487;22;20016;-85
2022/08/23 10:12:50;;;;;;;0.00;0.00;;;;;;;;;;6224279;22;20250;-85
2022/08/23 10:15:16;;;;;;;0.05;0.05;;;;;;;;;;6224210;22;20034;-86
2022/08/23 10:18:02;;;;;;;0.00;0.00;;;;;;;;;;6224056;22;20023;-86
2022/08/23 10:20:51;;;;;;;0.00;0.00;;;;;;;;;;6249467;22;20095;-86
2022/08/23 10:23:41;;;;;;;0.00;0.00;;;;;;;;;;6230368;22;20094;-85
2022/08/23 10:26:10;;;;;;;0.00;0.00;;;;;;;;;;6248939;22;20023;-86
2022/08/23 10:31:30;;;;;;;0.05;0.05;;;;;;;;;;6249648;22;20118;-85
2022/08/23 10:34:02;;;;;;;0.05;0.05;;;;;;;;;;6224754;22;20026;-85
2022/08/23 10:36:30;;;;;;;0.00;0.00;;;;;;;;;;6223507;22;20397;-86
2022/08/23 10:39:00;;;;;;;0.05;0.05;;;;;;;;;;6224348;22;20015;-85
2022/08/23 10:41:45;;;;;;;0.00;0.00;;;;;;;;;;6224010;22;20076;-85
2022/08/23 10:44:27;;;;;;;0.10;0.10;;;;;;;;;;6224039;22;20087;-86
2022/08/23 10:47:21;;;;;;;0.00;0.00;;;;;;;;;;6223654;22;20015;-86
2022/08/23 10:49:49;;;;;;;0.08;0.08;;;;;;;;;;6169295;22;20388;-86
2022/08/23 10:52:19;;;;;;;0.00;0.00;;;;;;;;;;6243228;22;20015;-84
2022/08/23 10:55:05;;;;;;;0.00;0.00;;;;;;;;;;6223712;22;20026;-83
2022/08/23 10:57:39;;;;;;;0.00;0.00;;;;;;;;;;6223243;22;20165;-85
2022/08/23 11:00:11;;;;;;;0.00;0.00;;;;;;;;;;6223583;22;20025;-85
2022/08/23 11:02:43;;;;;;;0.00;0.00;;;;;;;;;;6223452;22;20022;-86
2022/08/23 11:05:18;;;;;;;0.10;0.10;;;;;;;;;;6223825;22;20016;-86
2022/08/23 11:07:56;;;;;;;0.00;0.00;;;;;;;;;;6223230;22;20070;-86
2022/08/23 11:10:51;;;;;;;0.00;0.00;;;;;;;;;;6223712;22;20430;-86
2022/08/23 11:13:20;;;;;;;0.00;0.00;;;;;;;;;;6223407;22;20015;-86
2022/08/23 11:16:00;;;;;;;0.10;0.10;;;;;;;;;;6223219;22;20353;-87
2022/08/23 11:18:47;;;;;;;0.00;0.00;;;;;;;;;;6223473;22;20019;-86
2022/08/23 11:21:29;;;;;;;0.00;0.00;;;;;;;;;;6223647;22;20081;-86
2022/08/23 11:23:58;;;;;;;0.00;0.00;;;;;;;;;;6223603;22;20085;-87
2022/08/23 11:26:34;;;;;;;0.03;0.03;;;;;;;;;;6223349;22;20042;-88
2022/08/23 11:29:04;;;;;;;0.03;0.03;;;;;;;;;;6224037;22;20356;-88
2022/08/23 11:31:33;;;;;;;0.00;0.00;;;;;;;;;;6223924;22;20027;-88
2022/08/23 11:34:02;;;;;;;0.00;0.00;;;;;;;;;;6223541;22;20090;-87
2022/08/23 11:36:29;;;;;;;0.00;0.00;;;;;;;;;;6223117;22;20020;-84
2022/08/23 11:38:55;;;;;;;0.10;0.10;;;;;;;;;;6221929;22;20016;-86
2022/08/23 11:41:27;;;;;;;0.00;0.00;;;;;;;;;;6221023;22;20089;-85
2022/08/23 11:43:56;;;;;;;0.00;0.00;;;;;;;;;;6222477;22;20020;-86
2022/08/23 11:46:25;;;;;;;0.08;0.08;;;;;;;;;;6222753;22;20026;-89
2022/08/23 11:49:03;;;;;;;0.00;0.00;;;;;;;;;;6223783;22;20019;-89
2022/08/23 11:51:40;;;;;;;0.00;0.00;;;;;;;;;;6224032;22;20020;-90
2022/08/23 11:54:06;;;;;;;0.00;0.00;;;;;;;;;;6223390;22;20424;-89
2022/08/23 11:56:55;;;;;;;0.05;0.05;;;;;;;;;;6222632;22;20016;-87
2022/08/23 11:59:28;;;;;;;0.00;0.00;;;;;;;;;;6223243;22;20051;-89
2022/08/23 12:01:55;;;;;;;0.00;0.00;;;;;;;;;;6248955;22;20016;-88
2022/08/23 12:04:41;;;;;;;0.00;0.00;;;;;;;;;;6223173;22;20354;-86
2022/08/23 12:07:11;;;;;;;0.00;0.00;;;;;;;;;;6248040;22;20354;-88
2022/08/23 12:09:41;;;;;;;0.08;0.08;;;;;;;;;;6223269;22;20031;-88
2022/08/23 12:12:24;;;;;;;0.00;0.00;;;;;;;;;;6224249;22;20019;-90
2022/08/23 12:14:55;;;;;;;0.00;0.00;;;;;;;;;;6223805;22;20097;-88
2022/08/23 12:17:24;;;;;;;0.10;0.10;;;;;;;;;;6222366;22;20373;-87
2022/08/23 12:19:56;;;;;;;0.10;0.10;;;;;;;;;;6223047;22;20012;-88
2022/08/23 12:22:25;;;;;;;0.00;0.00;;;;;;;;;;6223026;22;20016;-88
2022/08/23 12:24:59;;;;;;;0.00;0.00;;;;;;;;;;6248798;22;20011;-90
2022/08/23 12:27:44;;;;;;;0.00;0.00;;;;;;;;;;6222856;22;20094;-88
2022/08/23 12:30:17;;;;;;;0.00;0.00;;;;;;;;;;6223223;22;20028;-88
2022/08/23 12:33:03;;;;;;;0.05;0.05;;;;;;;;;;6223145;22;20019;-87
2022/08/23 12:35:29;;;;;;;0.00;0.00;;;;;;;;;;6222371;22;20070;-87
2022/08/23 12:37:58;;;;;;;0.00;0.00;;;;;;;;;;6248288;22;20015;-88
2022/08/23 12:40:30;;;;;;;0.05;0.05;;;;;;;;;;6223097;22;20034;-87
2022/08/23 12:43:05;;;;;;;0.10;0.10;;;;;;;;;;6222998;22;20066;-88
2022/08/23 12:45:36;;;;;;;0.00;0.00;;;;;;;;;;6248040;22;20051;-88
2022/08/23 12:48:02;;;;;;;0.10;0.10;;;;;;;;;;6223095;22;20022;-87
2022/08/23 12:50:39;;;;;;;0.00;0.00;;;;;;;;;;6223452;22;20101;-88
2022/08/23 12:53:10;;;;;;;0.10;0.10;;;;;;;;;;6222871;22;20016;-87
2022/08/23 12:55:39;;;;;;;0.00;0.00;;;;;;;;;;6221969;22;20020;-86
2022/08/23 12:58:06;;;;;;;0.00;0.00;;;;;;;;;;6222964;22;20015;-86
2022/08/23 13:00:38;;;;;;;0.00;0.00;;;;;;;;;;6222822;22;20018;-86
2022/08/23 13:03:04;;;;;;;0.00;0.00;;;;;;;;;;6248079;22;20062;-88
2022/08/23 13:05:36;;;;;;;0.10;0.10;;;;;;;;;;6222533;22;20018;-87
2022/08/23 13:08:04;;;;;;;0.00;0.00;;;;;;;;;;6223190;22;20008;-87
2022/08/23 13:10:31;;;;;;;0.10;0.10;;;;;;;;;;6224807;22;20012;-87
2022/08/23 13:12:57;;;;;;;0.00;0.00;;;;;;;;;;6224327;22;20145;-87
2022/08/23 13:15:40;;;;;;;0.00;0.00;;;;;;;;;;6223696;22;20015;-87
2022/08/23 13:18:06;;;;;;;0.03;0.03;;;;;;;;;;6224352;22;20015;-87
2022/08/23 13:20:32;;;;;;;0.00;0.00;;;;;;;;;;6223949;22;20066;-88
2022/08/23 13:23:00;;;;;;;0.00;0.00;;;;;;;;;;6224286;22;20019;-85
2022/08/23 13:25:31;;;;;;;0.00;0.00;;;;;;;;;;6249250;22;20096;-87
2022/08/23 13:27:59;;;;;;;0.00;0.00;;;;;;;;;;6224453;22;20019;-87
2022/08/23 13:30:28;;;;;;;0.10;0.10;;;;;;;;;;6250109;22;20349;-88
2022/08/23 13:33:03;;;;;;;0.00;0.00;;;;;;;;;;6249818;22;20019;-87
2022/08/23 13:35:37;;;;;;;0.00;0.00;;;;;;;;;;6224162;22;20020;-85
2022/08/23 13:38:15;;;;;;;0.00;0.00;;;;;;;;;;6224341;22;20019;-88
2022/08/23 13:40:51;;;;;;;0.00;0.00;;;;;;;;;;6250099;22;20022;-88
2022/08/23 13:43:20;;;;;;;0.00;0.00;;;;;;;;;;6250173;22;20346;-88
2022/08/23 13:45:51;;;;;;;0.00;0.00;;;;;;;;;;6249430;22;20019;-85
2022/08/23 13:48:30;;;;;;;0.00;0.00;;;;;;;;;;6224554;22;20457;-85
2022/08/23 13:51:16;;;;;;;0.00;0.00;;;;;;;;;;6224458;22;20081;-87
2022/08/23 13:53:42;;;;;;;0.00;0.00;;;;;;;;;;6224287;22;20016;-85
2022/08/23 13:56:08;;;;;;;0.00;0.00;;;;;;;;;;6223745;22;20503;-85
2022/08/23 13:58:34;;;;;;;0.10;0.10;;;;;;;;;;6224546;22;20466;-87
2022/08/23 14:01:01;;;;;;;0.03;0.03;;;;;;;;;;6249665;22;20012;-87
2022/08/23 14:03:28;;;;;;;0.00;0.00;;;;;;;;;;6250137;22;20016;-91
2022/08/23 14:05:54;;;;;;;0.10;0.10;;;;;;;;;;6224531;22;20031;-90
2022/08/23 14:08:20;;;;;;;0.00;0.00;;;;;;;;;;6224812;22;20015;-92
2022/08/23 14:10:47;;;;;;;0.00;0.00;;;;;;;;;;6225419;22;20027;-90
2022/08/23 14:13:14;;;;;;;0.10;0.10;;;;;;;;;;6225404;22;20460;-89
2022/08/23 14:15:41;;;;;;;0.10;0.10;;;;;;;;;;6250230;22;20016;-92
2022/08/23 14:18:07;;;;;;;0.00;0.00;;;;;;;;;;6225459;22;20020;-92
2022/08/23 14:20:33;;;;;;;0.00;0.00;;;;;;;;;;6225463;22;20016;-92
2022/08/23 14:22:59;;;;;;;0.00;0.00;;;;;;;;;;6225787;22;20034;-94
2022/08/23 14:25:26;;;;;;;0.00;0.00;;;;;;;;;;6225233;22;20434;-92
2022/08/23 14:27:52;;;;;;;0.10;0.10;;;;;;;;;;6224232;22;20027;-92
2022/08/23 14:30:23;;;;;;;0.00;0.00;;;;;;;;;;6225439;22;20027;-92
2022/08/23 14:32:49;;;;;;;0.00;0.00;;;;;;;;;;6225583;22;20323;-90
2022/08/23 14:35:15;;;;;;;0.10;0.10;;;;;;;;;;6225286;22;20012;-90
2022/08/23 14:37:41;;;;;;;0.00;0.00;;;;;;;;;;6224753;22;20047;-90
2022/08/23 14:40:08;;;;;;;0.00;0.00;;;;;;;;;;6224938;22;20065;-91
2022/08/23 14:42:34;;;;;;;0.10;0.10;;;;;;;;;;6225341;22;20012;-90
2022/08/23 14:45:00;;;;;;;0.10;0.10;;;;;;;;;;6224796;22;20096;-90
2022/08/23 14:47:26;;;;;;;0.00;0.00;;;;;;;;;;6224675;22;20015;-91
2022/08/23 14:49:52;;;;;;;0.00;0.00;;;;;;;;;;6225070;22;20035;-90
2022/08/23 14:52:18;;;;;;;0.00;0.00;;;;;;;;;;6224451;22;20024;-90
2022/08/23 14:54:46;;;;;;;0.00;0.00;;;;;;;;;;6224661;22;20035;-91
2022/08/23 14:57:12;;;;;;;0.00;0.00;;;;;;;;;;6224300;22;20024;-90
2022/08/23 14:59:37;;;;;;;0.05;0.05;;;;;;;;;;6225193;22;20441;-90
2022/08/23 15:02:04;;;;;;;0.00;0.00;;;;;;;;;;6250280;22;20016;-90
2022/08/23 15:04:30;;;;;;;0.00;0.00;;;;;;;;;;6225059;22;20020;-89
2022/08/23 15:06:56;;;;;;;0.00;0.00;;;;;;;;;;6224237;22;20067;-89
2022/08/23 15:09:22;;;;;;;0.00;0.00;;;;;;;;;;6224789;22;20055;-90